Time;durP1;ratioP1;P1;durP2;ratioP2;P2;SDS_P1;SDS_P2;PMS_P1;PMS_P2;Temp;Humidity;BMP_temperature;BMP_pressure;BME280_temperature;BME280_humidity;BME280_pressure;Samples;Min_cycle;Max_cycle;Signal;HPM_P1;HPM_P2
2022/08/04 00:00:39;;;;;;;3.70;1.80;;;25.60;99.90;;;;;;5018818;28;20192;-84
2022/08/04 00:03:14;;;;;;;14.48;2.67;;;25.70;99.90;;;;;;5039607;28;20168;-83
2022/08/04 00:06:08;;;;;;;10.02;2.05;;;25.70;99.90;;;;;;5038534;28;20163;-83
2022/08/04 00:08:45;;;;;;;9.63;2.20;;;25.70;99.90;;;;;;5022583;28;20189;-84
2022/08/04 00:11:19;;;;;;;4.03;1.95;;;25.60;99.90;;;;;;5036682;28;20585;-82
2022/08/04 00:13:56;;;;;;;6.43;2.05;;;25.60;99.90;;;;;;5019383;28;20174;-84
2022/08/04 00:16:27;;;;;;;2.50;1.77;;;25.60;99.90;;;;;;5021298;28;20171;-83
2022/08/04 00:19:01;;;;;;;12.75;1.77;;;25.50;99.90;;;;;;5037126;28;20167;-83
2022/08/04 00:21:28;;;;;;;2.60;1.63;;;25.40;99.90;;;;;;5035247;28;20717;-83
2022/08/04 00:23:55;;;;;;;14.77;2.03;;;25.50;99.90;;;;;;5035577;28;20171;-83
2022/08/04 00:26:22;;;;;;;5.20;2.45;;;25.40;99.90;;;;;;5037196;28;20757;-84
2022/08/04 00:28:48;;;;;;;17.95;2.75;;;25.40;99.90;;;;;;5035029;28;20172;-83
2022/08/04 00:31:14;;;;;;;13.35;1.95;;;25.40;99.90;;;;;;5017624;28;20217;-83
2022/08/04 00:33:47;;;;;;;7.25;2.65;;;25.30;99.90;;;;;;5036290;28;20167;-84
2022/08/04 00:36:13;;;;;;;6.90;1.85;;;25.20;99.90;;;;;;5019107;28;20187;-82
2022/08/04 00:38:43;;;;;;;4.50;2.47;;;25.20;99.90;;;;;;5044200;28;20183;-82
2022/08/04 00:41:27;;;;;;;4.47;2.10;;;25.20;99.90;;;;;;5055066;28;20183;-81
2022/08/04 00:44:05;;;;;;;13.95;2.65;;;25.20;99.90;;;;;;5042047;28;20250;-82
2022/08/04 00:46:50;;;;;;;8.02;2.13;;;25.30;99.90;;;;;;5036895;28;20211;-83
2022/08/04 00:49:32;;;;;;;7.43;2.40;;;25.10;99.90;;;;;;5033966;28;20245;-83
2022/08/04 00:52:09;;;;;;;19.88;2.15;;;25.10;99.90;;;;;;5034323;28;20164;-84
2022/08/04 00:54:44;;;;;;;7.50;2.33;;;24.90;99.90;;;;;;5036291;28;20187;-82
2022/08/04 00:57:47;;;;;;;4.78;2.20;;;25.00;99.90;;;;;;5026631;28;20199;-83
2022/08/04 01:00:16;;;;;;;8.10;2.65;;;24.80;99.90;;;;;;5022177;28;20198;-83
2022/08/04 01:03:10;;;;;;;3.80;1.85;;;25.00;99.90;;;;;;5020679;28;20658;-83
2022/08/04 01:05:44;;;;;;;12.93;2.17;;;24.90;99.90;;;;;;5038575;28;20253;-84
2022/08/04 01:08:45;;;;;;;11.90;2.70;;;24.80;99.90;;;;;;5037781;28;20231;-84
2022/08/04 01:11:25;;;;;;;15.82;2.65;;;24.70;99.90;;;;;;5038791;28;20547;-83
2022/08/04 01:13:57;;;;;;;5.55;2.80;;;24.60;99.90;;;;;;5033778;28;20178;-84
2022/08/04 01:16:26;;;;;;;8.98;2.83;;;24.60;99.90;;;;;;5035378;28;20247;-82
2022/08/04 01:19:04;;;;;;;6.55;2.40;;;24.50;99.90;;;;;;5016441;28;20164;-82
2022/08/04 01:21:48;;;;;;;9.27;2.33;;;24.50;99.90;;;;;;5015404;28;20179;-82
2022/08/04 01:24:51;;;;;;;13.38;3.08;;;24.40;99.90;;;;;;5015224;28;20245;-82
2022/08/04 01:27:25;;;;;;;3.85;2.97;;;24.50;99.90;;;;;;5015099;28;20294;-82
2022/08/04 01:29:56;;;;;;;10.30;3.72;;;24.30;99.90;;;;;;5015446;28;20237;-82
2022/08/04 01:32:25;;;;;;;23.38;3.03;;;24.50;99.90;;;;;;5034446;28;20156;-83
2022/08/04 01:34:57;;;;;;;12.82;2.90;;;24.60;99.90;;;;;;5043341;28;20187;-82
2022/08/04 01:38:07;;;;;;;13.95;2.90;;;24.60;99.90;;;;;;5044150;28;20183;-82
2022/08/04 01:40:37;;;;;;;6.57;2.47;;;24.40;99.90;;;;;;4943746;29;20242;-82
2022/08/04 01:43:03;;;;;;;10.77;3.17;;;24.60;99.90;;;;;;5032457;28;20175;-80
2022/08/04 01:45:29;;;;;;;4.32;2.85;;;24.40;99.90;;;;;;5045402;28;20176;-83
2022/08/04 01:47:56;;;;;;;17.67;3.00;;;24.40;99.90;;;;;;5052715;28;20247;-81
2022/08/04 01:50:26;;;;;;;5.50;2.92;;;24.40;99.90;;;;;;5035595;28;20190;-82
2022/08/04 01:52:54;;;;;;;4.53;2.40;;;24.30;99.90;;;;;;5034505;28;20172;-80
2022/08/04 01:55:20;;;;;;;3.13;2.83;;;24.30;99.90;;;;;;5052311;28;20148;-83
2022/08/04 01:57:50;;;;;;;6.70;2.83;;;24.20;99.90;;;;;;5036075;28;20159;-83
2022/08/04 02:00:22;;;;;;;8.75;2.78;;;24.30;99.90;;;;;;5037142;28;20670;-84
2022/08/04 02:02:51;;;;;;;5.82;2.72;;;24.50;99.90;;;;;;5032390;28;20655;-82
2022/08/04 02:05:19;;;;;;;15.93;2.22;;;24.50;99.90;;;;;;5014596;28;20164;-83
2022/08/04 02:07:56;;;;;;;8.27;2.45;;;24.40;99.90;;;;;;5032483;28;20195;-81
2022/08/04 02:10:52;;;;;;;2.83;2.10;;;24.20;99.90;;;;;;5032199;28;20190;-83
2022/08/04 02:13:34;;;;;;;12.40;2.30;;;24.10;99.90;;;;;;5006620;28;20245;-84
2022/08/04 02:16:07;;;;;;;4.30;2.33;;;24.10;99.90;;;;;;5036034;28;20188;-82
2022/08/04 02:18:43;;;;;;;7.60;2.63;;;24.10;99.90;;;;;;5036206;28;20677;-83
2022/08/04 02:21:11;;;;;;;5.88;3.05;;;24.20;99.90;;;;;;5036120;28;20163;-83
2022/08/04 02:23:39;;;;;;;6.15;2.60;;;24.20;99.90;;;;;;5035986;28;20187;-83
2022/08/04 02:26:16;;;;;;;5.45;2.58;;;24.10;99.90;;;;;;5036030;28;20163;-82
2022/08/04 02:29:08;;;;;;;3.78;2.92;;;24.10;99.90;;;;;;5035943;28;20176;-81
2022/08/04 02:32:02;;;;;;;6.15;3.58;;;23.90;99.90;;;;;;5018286;28;20168;-81
2022/08/04 02:34:28;;;;;;;17.77;3.78;;;23.70;99.90;;;;;;5035658;28;20164;-81
2022/08/04 02:36:57;;;;;;;8.65;3.38;;;23.60;99.90;;;;;;5018246;28;20670;-83
2022/08/04 02:39:29;;;;;;;12.07;3.95;;;23.40;99.90;;;;;;5035755;28;20192;-83
2022/08/04 02:41:57;;;;;;;7.43;3.95;;;23.50;99.90;;;;;;5035950;28;20168;-83
2022/08/04 02:44:27;;;;;;;12.32;4.07;;;23.60;99.90;;;;;;5035559;28;20226;-82
2022/08/04 02:46:53;;;;;;;18.73;3.88;;;23.50;99.90;;;;;;5017880;28;20199;-84
2022/08/04 02:49:22;;;;;;;18.55;3.42;;;23.60;99.90;;;;;;5035610;28;20267;-82
2022/08/04 02:51:53;;;;;;;11.82;4.20;;;23.50;99.90;;;;;;5017962;28;20241;-82
2022/08/04 02:54:24;;;;;;;9.77;3.13;;;23.40;99.90;;;;;;5035674;28;20619;-83
2022/08/04 02:56:52;;;;;;;24.15;4.10;;;23.50;99.90;;;;;;5035582;28;20178;-81
2022/08/04 02:59:22;;;;;;;6.35;3.83;;;23.50;99.90;;;;;;5043260;28;20191;-82
2022/08/04 03:01:47;;;;;;;8.95;4.10;;;23.50;99.90;;;;;;5031261;28;20152;-82
2022/08/04 03:04:16;;;;;;;17.85;4.18;;;23.40;99.90;;;;;;5060283;28;20166;-82
2022/08/04 03:07:06;;;;;;;13.13;3.50;;;23.60;99.90;;;;;;5038778;28;20213;-83
2022/08/04 03:09:41;;;;;;;7.35;3.60;;;23.50;99.90;;;;;;5035513;28;20187;-82
2022/08/04 03:12:38;;;;;;;5.82;3.22;;;23.50;99.90;;;;;;5035342;28;20191;-82
2022/08/04 03:15:34;;;;;;;4.05;3.50;;;23.40;99.90;;;;;;5035280;28;20179;-82
2022/08/04 03:18:58;;;;;;;18.65;4.57;;;23.30;99.90;;;;;;5017385;28;20213;-82
2022/08/04 03:21:48;;;;;;;8.07;3.65;;;23.40;99.90;;;;;;5017928;28;20180;-82
2022/08/04 03:24:48;;;;;;;14.23;3.60;;;23.30;99.90;;;;;;5036273;28;20164;-83
2022/08/04 03:27:20;;;;;;;10.63;3.45;;;23.20;99.90;;;;;;5019489;28;20215;-82
2022/08/04 03:30:22;;;;;;;4.07;3.35;;;23.20;99.90;;;;;;5019318;28;20695;-85
2022/08/04 03:33:01;;;;;;;7.53;4.03;;;23.20;99.90;;;;;;5036839;28;20168;-82
2022/08/04 03:35:58;;;;;;;9.85;3.60;;;23.30;99.90;;;;;;5017676;28;20528;-82
2022/08/04 03:38:39;;;;;;;8.43;3.15;;;23.20;99.90;;;;;;5034635;28;20196;-83
2022/08/04 03:41:35;;;;;;;12.50;4.13;;;23.30;99.90;;;;;;5017367;28;20536;-83
2022/08/04 03:44:12;;;;;;;6.53;3.05;;;23.30;99.90;;;;;;5034622;28;20183;-82
2022/08/04 03:47:24;;;;;;;13.63;3.47;;;23.30;99.90;;;;;;5034557;28;20203;-82
2022/08/04 03:50:19;;;;;;;9.13;4.03;;;23.20;99.90;;;;;;4998020;28;20211;-84
2022/08/04 03:53:12;;;;;;;10.55;3.63;;;23.30;99.90;;;;;;5007541;28;20551;-83
2022/08/04 03:56:08;;;;;;;8.18;3.03;;;23.40;99.90;;;;;;5034517;28;20221;-82
2022/08/04 03:58:53;;;;;;;6.65;3.92;;;23.40;99.90;;;;;;5034318;28;20172;-84
2022/08/04 04:01:21;;;;;;;9.05;3.75;;;23.60;99.90;;;;;;5016492;28;20267;-82
2022/08/04 04:04:16;;;;;;;3.42;3.10;;;23.40;99.90;;;;;;5016665;28;20270;-83
2022/08/04 04:07:11;;;;;;;10.48;3.92;;;23.30;99.90;;;;;;5034017;28;20850;-84
2022/08/04 04:09:50;;;;;;;9.32;3.50;;;23.20;99.90;;;;;;5033842;28;21130;-82
2022/08/04 04:12:29;;;;;;;9.70;3.03;;;23.30;99.90;;;;;;5034180;28;20218;-83
2022/08/04 04:15:18;;;;;;;8.82;3.38;;;23.10;99.90;;;;;;5016120;28;20168;-83
2022/08/04 04:18:02;;;;;;;8.80;3.38;;;23.00;99.90;;;;;;5033620;28;20263;-84
2022/08/04 04:20:46;;;;;;;12.43;4.20;;;22.80;99.90;;;;;;5016074;28;20286;-84
2022/08/04 04:23:21;;;;;;;14.48;3.42;;;22.80;99.90;;;;;;5033658;28;20261;-83
2022/08/04 04:26:17;;;;;;;10.80;3.17;;;22.80;99.90;;;;;;5033576;28;20627;-83
2022/08/04 04:28:56;;;;;;;9.32;3.25;;;22.70;99.90;;;;;;5033517;28;20180;-84
2022/08/04 04:31:45;;;;;;;6.20;2.90;;;22.70;99.90;;;;;;5015983;28;20176;-82
2022/08/04 04:34:45;;;;;;;6.47;3.08;;;22.90;99.90;;;;;;5002949;28;20691;-83
2022/08/04 04:37:42;;;;;;;7.15;2.63;;;22.80;99.90;;;;;;5015712;28;20202;-82
2022/08/04 04:40:26;;;;;;;10.60;3.10;;;22.70;99.90;;;;;;5015785;28;20199;-83
2022/08/04 04:42:55;;;;;;;4.10;2.63;;;22.80;99.90;;;;;;5034074;28;20179;-83
2022/08/04 04:45:24;;;;;;;5.88;3.40;;;22.70;99.90;;;;;;5015521;28;20179;-83
2022/08/04 04:48:13;;;;;;;8.02;3.15;;;22.70;99.90;;;;;;5033448;28;20264;-83
2022/08/04 04:51:05;;;;;;;10.45;3.83;;;22.70;99.90;;;;;;5033295;28;20191;-83
2022/08/04 04:53:33;;;;;;;13.88;3.15;;;22.70;99.90;;;;;;5033114;28;20237;-82
2022/08/04 04:56:15;;;;;;;8.38;3.67;;;22.60;99.90;;;;;;5033015;28;20524;-82
2022/08/04 04:58:42;;;;;;;12.82;3.78;;;22.70;99.90;;;;;;5033316;28;20170;-82
2022/08/04 05:01:16;;;;;;;6.28;3.92;;;22.80;99.90;;;;;;5033519;28;20171;-83
2022/08/04 05:03:52;;;;;;;13.77;3.80;;;22.80;99.90;;;;;;5015247;28;20237;-82
2022/08/04 05:06:51;;;;;;;14.15;3.58;;;22.90;99.90;;;;;;5015260;28;20171;-83
2022/08/04 05:09:38;;;;;;;12.68;3.88;;;22.80;99.90;;;;;;5015198;28;20196;-84
2022/08/04 05:12:35;;;;;;;9.45;3.78;;;22.80;99.90;;;;;;5033068;28;20206;-82
2022/08/04 05:15:06;;;;;;;8.40;3.83;;;22.90;99.90;;;;;;5015395;28;20180;-84
2022/08/04 05:17:39;;;;;;;9.02;4.10;;;22.90;99.90;;;;;;5015425;28;20178;-82
2022/08/04 05:20:14;;;;;;;10.23;4.38;;;22.90;99.90;;;;;;5015289;28;20251;-82
2022/08/04 05:22:58;;;;;;;12.50;5.13;;;23.00;99.90;;;;;;5036301;28;20229;-80
2022/08/04 05:25:34;;;;;;;18.63;4.45;;;23.00;99.90;;;;;;5049377;28;20164;-80
2022/08/04 05:28:04;;;;;;;12.18;4.55;;;23.10;99.90;;;;;;5056658;28;20194;-85
2022/08/04 05:30:35;;;;;;;11.77;4.25;;;23.10;99.90;;;;;;5025365;28;20195;-88
2022/08/04 05:33:06;;;;;;;11.75;3.42;;;23.20;99.90;;;;;;5034420;28;20171;-89
2022/08/04 05:35:54;;;;;;;8.40;3.20;;;23.20;99.90;;;;;;5034355;28;20170;-83
2022/08/04 05:38:25;;;;;;;14.15;3.63;;;23.30;99.90;;;;;;5036575;28;20205;-86
2022/08/04 05:40:53;;;;;;;5.50;2.63;;;23.40;99.90;;;;;;5034535;28;20199;-88
2022/08/04 05:43:20;;;;;;;7.55;3.05;;;23.50;99.90;;;;;;5035002;28;20171;-86
2022/08/04 05:45:47;;;;;;;13.68;3.28;;;23.60;99.90;;;;;;5024984;28;20614;-81
2022/08/04 05:48:13;;;;;;;11.18;3.00;;;23.50;99.90;;;;;;5049316;28;20200;-86
2022/08/04 05:50:39;;;;;;;9.98;3.03;;;23.50;99.90;;;;;;5018454;28;20750;-87
2022/08/04 05:53:06;;;;;;;11.88;3.03;;;23.50;99.90;;;;;;5033868;28;20175;-87
2022/08/04 05:55:33;;;;;;;8.05;2.85;;;23.60;99.90;;;;;;5033401;28;20689;-87
2022/08/04 05:58:01;;;;;;;6.32;3.00;;;23.80;99.90;;;;;;5033194;28;20650;-83
2022/08/04 06:00:27;;;;;;;6.88;3.17;;;23.80;99.90;;;;;;5033457;28;20346;-85
2022/08/04 06:02:55;;;;;;;14.23;3.45;;;24.00;99.90;;;;;;5033070;28;20575;-86
2022/08/04 06:05:21;;;;;;;8.32;2.97;;;24.00;99.90;;;;;;5034732;28;20167;-84
2022/08/04 06:07:47;;;;;;;8.23;3.22;;;24.30;99.90;;;;;;5033517;28;20540;-85
2022/08/04 06:10:15;;;;;;;7.45;2.92;;;24.50;99.90;;;;;;5032914;28;20190;-83
2022/08/04 06:12:59;;;;;;;7.72;2.97;;;24.40;99.90;;;;;;5032751;28;20167;-83
2022/08/04 06:15:27;;;;;;;12.25;3.50;;;24.30;99.90;;;;;;5032761;28;20302;-84
2022/08/04 06:17:56;;;;;;;8.90;3.15;;;24.20;99.90;;;;;;5033346;28;20174;-81
2022/08/04 06:20:27;;;;;;;3.88;2.58;;;23.80;99.90;;;;;;5032593;28;20184;-84
2022/08/04 06:23:00;;;;;;;4.75;2.28;;;24.00;99.90;;;;;;5032777;28;20251;-85
2022/08/04 06:25:31;;;;;;;17.90;3.38;;;24.10;99.90;;;;;;5032426;28;20164;-83
2022/08/04 06:27:58;;;;;;;15.95;3.28;;;24.00;99.90;;;;;;5033996;28;20200;-83
2022/08/04 06:30:26;;;;;;;14.57;3.40;;;24.00;99.90;;;;;;5015143;28;20191;-84
2022/08/04 06:32:56;;;;;;;16.70;2.97;;;24.20;99.90;;;;;;5015218;28;20168;-85
2022/08/04 06:35:24;;;;;;;16.92;4.07;;;24.50;99.90;;;;;;5033043;28;20190;-84
2022/08/04 06:37:52;;;;;;;6.75;2.80;;;24.50;99.90;;;;;;5015169;28;20532;-86
2022/08/04 06:40:20;;;;;;;11.50;2.58;;;24.60;99.90;;;;;;5014916;28;20195;-83
2022/08/04 06:42:47;;;;;;;6.03;2.28;;;24.80;99.90;;;;;;5032059;28;20624;-82
2022/08/04 06:45:14;;;;;;;12.18;3.72;;;24.70;99.90;;;;;;5013525;28;20164;-83
2022/08/04 06:47:41;;;;;;;7.70;3.38;;;24.80;99.90;;;;;;5014095;28;20238;-82
2022/08/04 06:50:09;;;;;;;6.35;2.88;;;24.80;99.90;;;;;;5018053;28;20203;-86
2022/08/04 06:52:35;;;;;;;9.20;2.78;;;24.60;99.90;;;;;;5011263;28;20245;-86
2022/08/04 06:55:01;;;;;;;11.63;3.15;;;24.90;99.90;;;;;;5012205;28;20710;-85
2022/08/04 06:57:29;;;;;;;8.00;2.55;;;25.00;99.90;;;;;;4995003;28;20173;-88
2022/08/04 06:59:59;;;;;;;7.60;2.78;;;25.20;99.90;;;;;;5022835;28;20191;-85
2022/08/04 07:02:28;;;;;;;13.77;3.25;;;25.50;99.90;;;;;;5018524;28;20191;-85
2022/08/04 07:04:55;;;;;;;8.57;3.38;;;25.70;99.90;;;;;;5035366;28;20251;-84
2022/08/04 07:07:22;;;;;;;5.85;2.80;;;25.60;99.90;;;;;;5035866;28;20230;-86
2022/08/04 07:09:48;;;;;;;110.32;6.03;;;25.90;99.90;;;;;;5017661;28;20190;-85
2022/08/04 07:12:19;;;;;;;8.40;3.17;;;26.10;99.90;;;;;;5035496;28;20172;-85
2022/08/04 07:14:45;;;;;;;12.32;2.90;;;25.80;99.90;;;;;;5015847;28;20517;-83
2022/08/04 07:17:12;;;;;;;9.40;2.58;;;25.80;99.90;;;;;;5030222;28;20178;-86
2022/08/04 07:19:38;;;;;;;6.63;2.10;;;26.10;99.90;;;;;;5033453;28;20187;-86
2022/08/04 07:22:07;;;;;;;7.57;2.28;;;26.40;99.90;;;;;;5034346;28;20650;-82
2022/08/04 07:24:36;;;;;;;2.55;2.10;;;26.70;99.90;;;;;;5033586;28;20210;-86
2022/08/04 07:27:02;;;;;;;15.27;3.40;;;27.20;99.90;;;;;;5015856;28;20207;-84
2022/08/04 07:29:28;;;;;;;8.45;3.22;;;27.30;99.90;;;;;;5016047;28;20200;-81
2022/08/04 07:31:56;;;;;;;5.53;2.55;;;27.30;99.90;;;;;;5034014;28;20252;-84
2022/08/04 07:34:24;;;;;;;9.40;6.03;;;27.30;99.90;;;;;;5033579;28;20168;-84
2022/08/04 07:36:53;;;;;;;8.98;3.10;;;27.50;99.90;;;;;;5033756;28;20627;-82
2022/08/04 07:39:20;;;;;;;15.38;4.00;;;27.40;99.90;;;;;;5015610;28;20773;-84
2022/08/04 07:41:46;;;;;;;8.65;3.05;;;27.50;99.90;;;;;;5033599;28;20175;-85
2022/08/04 07:44:15;;;;;;;9.20;3.15;;;26.90;99.90;;;;;;5033779;28;20254;-83
2022/08/04 07:46:42;;;;;;;6.10;3.63;;;26.60;99.90;;;;;;5032916;28;20214;-85
2022/08/04 07:49:08;;;;;;;8.40;3.58;;;26.50;99.90;;;;;;5038431;28;20204;-82
2022/08/04 07:51:36;;;;;;;14.93;3.58;;;26.00;99.90;;;;;;5041635;28;20177;-82
2022/08/04 07:54:04;;;;;;;12.30;2.83;;;25.80;99.90;;;;;;5036505;28;20189;-85
2022/08/04 07:56:31;;;;;;;6.03;3.15;;;25.80;99.90;;;;;;5024810;28;20532;-87
2022/08/04 07:58:58;;;;;;;7.80;2.90;;;25.80;99.90;;;;;;5017039;28;20203;-83
2022/08/04 08:01:24;;;;;;;7.05;3.58;;;25.50;99.90;;;;;;5016662;28;20258;-85
2022/08/04 08:03:52;;;;;;;12.52;3.65;;;25.60;99.90;;;;;;5016885;28;20206;-84
2022/08/04 08:06:17;;;;;;;11.27;3.58;;;25.40;99.90;;;;;;5033912;28;20525;-85
2022/08/04 08:08:43;;;;;;;11.02;3.83;;;25.40;99.90;;;;;;5032847;28;20164;-83
2022/08/04 08:11:09;;;;;;;8.50;3.67;;;25.20;99.90;;;;;;5016083;28;20204;-85
2022/08/04 08:13:36;;;;;;;17.08;3.50;;;25.30;99.90;;;;;;5033050;28;20179;-83
2022/08/04 08:16:03;;;;;;;8.10;4.90;;;25.10;99.90;;;;;;5031785;28;20176;-90
2022/08/04 08:18:30;;;;;;;7.63;5.85;;;25.00;99.90;;;;;;5016450;28;20639;-88
2022/08/04 08:20:56;;;;;;;13.77;5.57;;;24.70;99.90;;;;;;5033779;28;20192;-83
2022/08/04 08:23:23;;;;;;;12.98;6.07;;;24.70;99.90;;;;;;5033780;28;20203;-81
2022/08/04 08:25:48;;;;;;;16.30;6.63;;;24.70;99.90;;;;;;5016449;28;20198;-86
2022/08/04 08:28:17;;;;;;;26.10;8.57;;;24.70;99.90;;;;;;5032456;28;20207;-80
2022/08/04 08:30:43;;;;;;;36.25;10.00;;;24.60;99.90;;;;;;5033713;28;20207;-88
2022/08/04 08:33:11;;;;;;;24.73;9.98;;;24.30;99.90;;;;;;5033096;28;20664;-87
2022/08/04 08:35:55;;;;;;;21.75;10.52;;;24.30;99.90;;;;;;5013577;28;20221;-90
2022/08/04 08:38:37;;;;;;;18.52;10.10;;;24.30;99.90;;;;;;5033814;28;20215;-82
2022/08/04 08:41:41;;;;;;;17.15;10.88;;;24.10;99.90;;;;;;5014704;28;20199;-86
2022/08/04 08:44:37;;;;;;;20.92;10.77;;;24.10;99.90;;;;;;5030474;28;20220;-85
2022/08/04 08:47:34;;;;;;;26.23;11.77;;;24.40;99.90;;;;;;5014223;28;20230;-84
2022/08/04 08:50:30;;;;;;;23.90;10.70;;;24.50;99.90;;;;;;5014338;28;20288;-84
2022/08/04 08:53:48;;;;;;;30.90;10.93;;;24.40;99.90;;;;;;5016746;28;20164;-84
2022/08/04 08:56:35;;;;;;;21.55;10.93;;;24.50;99.90;;;;;;4991175;28;20430;-88
2022/08/04 08:59:36;;;;;;;28.20;16.30;;;24.70;99.90;;;;;;5035460;28;20203;-88
2022/08/04 09:02:21;;;;;;;22.60;11.45;;;24.50;99.90;;;;;;5005516;28;20190;-88
2022/08/04 09:05:24;;;;;;;23.70;11.10;;;24.50;99.90;;;;;;5035526;28;20159;-88
2022/08/04 09:08:10;;;;;;;20.10;10.55;;;24.20;99.90;;;;;;5016690;28;20207;-89
2022/08/04 09:10:45;;;;;;;31.00;11.00;;;24.10;99.90;;;;;;5017123;28;20276;-88
2022/08/04 09:13:16;;;;;;;21.95;11.50;;;24.10;99.90;;;;;;5036271;28;20627;-86
2022/08/04 09:16:13;;;;;;;26.65;12.88;;;24.00;99.90;;;;;;5017141;28;20254;-86
2022/08/04 09:18:58;;;;;;;24.10;12.38;;;24.10;99.90;;;;;;5018737;28;20180;-86
2022/08/04 09:21:30;;;;;;;19.35;11.38;;;24.10;99.90;;;;;;5034676;28;20668;-86
2022/08/04 09:24:13;;;;;;;23.88;11.65;;;24.10;99.90;;;;;;5017837;28;20263;-87
2022/08/04 09:26:45;;;;;;;25.90;12.65;;;24.20;99.90;;;;;;5016308;28;20209;-87
2022/08/04 09:29:54;;;;;;;27.55;12.18;;;24.40;99.90;;;;;;5035202;28;20266;-87
2022/08/04 09:32:40;;;;;;;18.63;11.55;;;24.50;99.90;;;;;;4985550;28;20212;-86
2022/08/04 09:35:15;;;;;;;26.85;12.00;;;24.30;99.90;;;;;;5029995;28;20174;-88
2022/08/04 09:38:15;;;;;;;26.23;12.60;;;24.40;99.90;;;;;;4997999;28;20636;-87
2022/08/04 09:40:47;;;;;;;33.25;11.02;;;24.30;99.90;;;;;;5007014;28;20536;-87
2022/08/04 09:43:36;;;;;;;20.35;11.18;;;24.30;99.90;;;;;;5035459;28;20203;-84
2022/08/04 09:46:23;;;;;;;29.58;11.93;;;24.10;99.90;;;;;;5019015;28;20180;-87
2022/08/04 09:49:09;;;;;;;31.75;13.27;;;24.10;99.90;;;;;;5015799;28;20195;-84
2022/08/04 09:51:41;;;;;;;26.02;13.85;;;24.10;99.90;;;;;;5034181;28;20164;-88
2022/08/04 09:54:15;;;;;;;30.08;15.07;;;24.30;99.90;;;;;;5037245;28;20171;-90
2022/08/04 09:57:06;;;;;;;44.80;15.63;;;24.40;99.90;;;;;;5034096;28;20199;-85
2022/08/04 10:00:07;;;;;;;36.20;16.10;;;24.60;99.90;;;;;;5032330;28;20212;-88
2022/08/04 10:02:43;;;;;;;30.70;15.32;;;24.70;99.90;;;;;;5006685;28;20194;-89
2022/08/04 10:05:15;;;;;;;35.08;15.82;;;24.70;99.90;;;;;;5034920;28;20627;-88
2022/08/04 10:08:01;;;;;;;31.05;14.57;;;24.50;99.90;;;;;;5017483;28;20203;-83
2022/08/04 10:10:39;;;;;;;32.88;15.15;;;24.60;99.90;;;;;;5034600;28;20538;-90
2022/08/04 10:13:41;;;;;;;32.30;16.17;;;25.20;99.90;;;;;;5034109;28;20382;-89
2022/08/04 10:16:30;;;;;;;24.67;15.40;;;25.70;99.90;;;;;;5016268;28;20175;-85
2022/08/04 10:19:06;;;;;;;36.28;15.50;;;26.10;99.90;;;;;;5024685;28;20178;-81
2022/08/04 10:21:46;;;;;;;27.88;16.77;;;26.00;99.90;;;;;;5029169;28;20151;-83
2022/08/04 10:24:39;;;;;;;18.70;14.38;;;25.90;99.90;;;;;;5036480;28;20187;-83
2022/08/04 10:27:12;;;;;;;22.65;15.07;;;25.90;99.90;;;;;;5019209;28;20698;-83
2022/08/04 10:29:43;;;;;;;31.38;15.98;;;25.50;99.90;;;;;;5017880;28;20208;-82
2022/08/04 10:32:44;;;;;;;22.63;15.18;;;24.90;99.90;;;;;;5034122;28;20171;-82
2022/08/04 10:35:23;;;;;;;21.17;14.63;;;24.90;99.90;;;;;;5040349;28;20175;-82
2022/08/04 10:38:27;;;;;;;20.85;13.93;;;25.30;99.90;;;;;;5013707;28;20199;-81
2022/08/04 10:41:05;;;;;;;25.05;14.45;;;25.60;99.90;;;;;;5046849;28;20195;-87
2022/08/04 10:43:57;;;;;;;19.40;14.57;;;25.90;99.90;;;;;;5044700;28;20174;-85
2022/08/04 10:46:48;;;;;;;23.38;12.45;;;26.30;99.90;;;;;;5044129;28;20632;-83
2022/08/04 10:49:42;;;;;;;18.65;11.75;;;26.20;99.90;;;;;;5045184;28;20196;-81
2022/08/04 10:52:21;;;;;;;12.52;11.18;;;26.40;99.90;;;;;;5050201;28;20183;-85
2022/08/04 10:55:08;;;;;;;13.57;9.60;;;27.00;99.90;;;;;;5025188;28;20208;-88
2022/08/04 10:58:06;;;;;;;12.38;10.18;;;27.30;99.90;;;;;;5043307;28;20210;-84
2022/08/04 11:00:40;;;;;;;11.90;10.07;;;27.30;99.90;;;;;;5033940;28;20219;-86
2022/08/04 11:03:20;;;;;;;13.65;10.07;;;27.50;99.90;;;;;;5050734;28;20172;-85
2022/08/04 11:06:04;;;;;;;20.67;10.43;;;27.60;99.90;;;;;;5028008;28;20209;-87
2022/08/04 11:08:57;;;;;;;9.75;8.80;;;27.80;99.90;;;;;;5027949;28;20261;-84
2022/08/04 11:11:36;;;;;;;14.38;9.52;;;27.90;99.90;;;;;;5024087;28;20188;-84
2022/08/04 11:14:26;;;;;;;14.10;9.52;;;27.70;99.90;;;;;;5042455;28;20528;-88
2022/08/04 11:16:59;;;;;;;10.90;7.65;;;27.70;99.90;;;;;;5036590;28;20192;-87
2022/08/04 11:19:49;;;;;;;16.95;8.15;;;27.80;99.90;;;;;;5036233;28;20196;-84
2022/08/04 11:22:25;;;;;;;22.35;9.40;;;27.90;99.90;;;;;;5021801;28;20176;-87
2022/08/04 11:25:18;;;;;;;9.23;8.15;;;28.10;99.90;;;;;;5021041;28;20159;-84
2022/08/04 11:28:08;;;;;;;11.70;7.45;;;27.80;99.90;;;;;;5022951;28;20215;-84
2022/08/04 11:30:51;;;;;;;9.45;8.52;;;27.70;99.90;;;;;;5021262;28;20199;-89
2022/08/04 11:33:31;;;;;;;14.70;9.02;;;27.60;99.90;;;;;;5038299;28;20691;-83
2022/08/04 11:36:02;;;;;;;9.43;8.50;;;27.60;99.90;;;;;;5021504;28;20532;-86
2022/08/04 11:38:37;;;;;;;18.63;10.45;;;27.40;99.90;;;;;;5020095;28;20238;-86
2022/08/04 11:41:16;;;;;;;15.98;9.35;;;27.30;99.90;;;;;;5023109;28;20182;-87
2022/08/04 11:43:59;;;;;;;18.10;10.35;;;27.10;99.90;;;;;;5040102;28;20174;-87
2022/08/04 11:46:47;;;;;;;9.35;8.13;;;27.20;99.90;;;;;;5021042;28;20168;-86
2022/08/04 11:49:29;;;;;;;18.83;8.20;;;27.20;99.90;;;;;;5021809;28;20195;-85
2022/08/04 11:51:59;;;;;;;8.13;7.43;;;27.30;99.90;;;;;;5038156;28;20167;-88
2022/08/04 11:54:26;;;;;;;12.85;7.20;;;27.20;99.90;;;;;;5020313;28;20179;-86
2022/08/04 11:56:53;;;;;;;9.85;8.70;;;27.40;99.90;;;;;;5040658;28;20254;-85
2022/08/04 11:59:21;;;;;;;9.43;6.93;;;27.40;99.90;;;;;;5004701;28;20195;-89
2022/08/04 12:02:04;;;;;;;10.77;7.90;;;27.50;99.90;;;;;;5037458;28;20168;-88
2022/08/04 12:05:00;;;;;;;13.63;7.35;;;27.70;99.90;;;;;;5018652;28;20172;-85
2022/08/04 12:07:32;;;;;;;6.60;5.38;;;28.00;99.90;;;;;;5019019;28;20224;-89
2022/08/04 12:10:17;;;;;;;8.00;5.30;;;28.00;99.90;;;;;;5035816;28;20195;-86
2022/08/04 12:12:51;;;;;;;7.38;6.40;;;27.60;99.90;;;;;;5017475;28;20303;-86
2022/08/04 12:15:28;;;;;;;12.50;4.88;;;27.70;99.90;;;;;;5035995;28;20638;-86
2022/08/04 12:18:22;;;;;;;13.05;5.40;;;27.60;99.90;;;;;;5021819;28;20179;-85
2022/08/04 12:21:00;;;;;;;11.13;5.95;;;27.40;99.90;;;;;;5050377;28;20192;-84
2022/08/04 12:23:32;;;;;;;8.43;6.35;;;27.50;99.90;;;;;;5027965;28;20171;-83
2022/08/04 12:26:06;;;;;;;10.32;5.60;;;27.70;99.90;;;;;;5028674;28;20167;-84
2022/08/04 12:28:35;;;;;;;9.00;5.18;;;27.80;99.90;;;;;;5053321;28;20216;-85
2022/08/04 12:31:15;;;;;;;9.57;5.85;;;27.80;99.90;;;;;;5047134;28;20187;-82
2022/08/04 12:34:08;;;;;;;10.93;6.05;;;27.80;99.90;;;;;;5048111;28;20198;-82
2022/08/04 12:36:54;;;;;;;20.15;6.75;;;27.70;99.90;;;;;;5054869;28;20203;-83
2022/08/04 12:39:21;;;;;;;13.50;5.30;;;27.70;99.90;;;;;;5053653;28;20184;-82
2022/08/04 12:42:07;;;;;;;14.05;5.05;;;27.80;99.90;;;;;;5054329;28;20204;-83
2022/08/04 12:44:36;;;;;;;5.68;4.70;;;28.10;99.90;;;;;;5040888;28;20250;-82
2022/08/04 12:47:04;;;;;;;9.10;5.18;;;27.90;99.90;;;;;;5055015;28;20211;-83
2022/08/04 12:49:36;;;;;;;15.48;4.97;;;27.90;99.90;;;;;;5050503;28;20178;-81
2022/08/04 12:52:06;;;;;;;12.15;5.70;;;27.80;99.90;;;;;;5036169;28;20253;-82
2022/08/04 12:54:34;;;;;;;7.90;6.18;;;27.70;99.90;;;;;;5035585;28;20178;-81
2022/08/04 12:57:03;;;;;;;7.05;4.38;;;27.30;99.90;;;;;;5023814;28;20164;-82
2022/08/04 12:59:29;;;;;;;8.95;4.72;;;27.80;99.90;;;;;;5015444;28;20230;-82
2022/08/04 13:01:55;;;;;;;4.75;4.03;;;27.80;99.90;;;;;;5033234;28;20164;-83
2022/08/04 13:04:26;;;;;;;10.20;3.90;;;28.00;99.90;;;;;;5015801;28;20176;-82
2022/08/04 13:07:04;;;;;;;14.80;3.95;;;28.20;99.90;;;;;;5015531;28;20211;-84
2022/08/04 13:09:32;;;;;;;7.47;4.22;;;28.50;99.90;;;;;;5032756;28;20234;-82
2022/08/04 13:12:03;;;;;;;4.38;3.28;;;28.80;99.90;;;;;;5015405;28;20260;-81
2022/08/04 13:14:37;;;;;;;5.68;4.35;;;29.30;99.90;;;;;;5015721;28;20582;-82
2022/08/04 13:17:04;;;;;;;5.45;3.75;;;29.30;99.90;;;;;;5015499;28;20249;-82
2022/08/04 13:19:30;;;;;;;4.55;3.50;;;29.30;99.90;;;;;;5033102;28;20249;-81
2022/08/04 13:21:59;;;;;;;3.83;3.42;;;29.10;99.90;;;;;;5032670;28;20255;-85
2022/08/04 13:24:28;;;;;;;12.52;4.63;;;29.10;99.90;;;;;;5014822;28;20167;-82
2022/08/04 13:27:09;;;;;;;4.75;3.80;;;29.10;99.90;;;;;;5024933;28;20749;-81
2022/08/04 13:29:47;;;;;;;6.95;3.63;;;29.00;99.90;;;;;;5017418;28;20211;-82
2022/08/04 13:32:19;;;;;;;7.13;3.42;;;29.00;99.90;;;;;;5028506;28;20255;-83